sensor_id;sensor_type;location;lat;lon;timestamp;pressure;altitude;pressure_sealevel;temperature;humidity
8320;BME280;4197;42.130;24.746;2023-02-28T00:01:29;100018.81;;;9.69;100.00
8320;BME280;4197;42.130;24.746;2023-02-28T00:03:58;100021.28;;;9.62;100.00
8320;BME280;4197;42.130;24.746;2023-02-28T00:06:27;100033.78;;;9.54;100.00
8320;BME280;4197;42.130;24.746;2023-02-28T00:08:55;100033.44;;;9.56;100.00
8320;BME280;4197;42.130;24.746;2023-02-28T00:11:25;100030.28;;;9.54;100.00
8320;BME280;4197;42.130;24.746;2023-02-28T00:13:54;100032.31;;;9.57;100.00
8320;BME280;4197;42.130;24.746;2023-02-28T00:16:22;100039.31;;;9.58;100.00
8320;BME280;4197;42.130;24.746;2023-02-28T00:18:51;100030.72;;;9.56;100.00
8320;BME280;4197;42.130;24.746;2023-02-28T00:21:19;100033.78;;;9.54;100.00
8320;BME280;4197;42.130;24.746;2023-02-28T00:23:48;100033.50;;;9.47;100.00
8320;BME280;4197;42.130;24.746;2023-02-28T00:26:16;100028.09;;;9.47;100.00
8320;BME280;4197;42.130;24.746;2023-02-28T00:28:48;100028.75;;;9.44;100.00
8320;BME280;4197;42.130;24.746;2023-02-28T00:31:19;100027.84;;;9.40;100.00
8320;BME280;4197;42.130;24.746;2023-02-28T00:33:47;100022.44;;;9.40;100.00
8320;BME280;4197;42.130;24.746;2023-02-28T00:36:18;100019.13;;;9.34;100.00
8320;BME280;4197;42.130;24.746;2023-02-28T00:38:46;100010.22;;;9.34;100.00
8320;BME280;4197;42.130;24.746;2023-02-28T00:41:14;100012.31;;;9.28;100.00
8320;BME280;4197;42.130;24.746;2023-02-28T00:43:42;100012.19;;;9.25;100.00
8320;BME280;4197;42.130;24.746;2023-02-28T00:46:13;100015.25;;;9.23;100.00
8320;BME280;4197;42.130;24.746;2023-02-28T00:48:41;100025.06;;;9.28;100.00
8320;BME280;4197;42.130;24.746;2023-02-28T00:51:11;100033.94;;;9.37;100.00
8320;BME280;4197;42.130;24.746;2023-02-28T00:53:39;100017.88;;;9.32;100.00
8320;BME280;4197;42.130;24.746;2023-02-28T00:56:08;100018.34;;;9.34;100.00
8320;BME280;4197;42.130;24.746;2023-02-28T00:58:36;100012.06;;;9.21;100.00
8320;BME280;4197;42.130;24.746;2023-02-28T01:01:04;100031.56;;;9.14;100.00
8320;BME280;4197;42.130;24.746;2023-02-28T01:03:34;100034.72;;;9.16;100.00
8320;BME280;4197;42.130;24.746;2023-02-28T01:06:02;100031.81;;;9.22;100.00
8320;BME280;4197;42.130;24.746;2023-02-28T01:08:30;100044.75;;;9.16;100.00
8320;BME280;4197;42.130;24.746;2023-02-28T01:11:07;100036.50;;;9.12;100.00
8320;BME280;4197;42.130;24.746;2023-02-28T01:13:36;100037.47;;;9.08;100.00
8320;BME280;4197;42.130;24.746;2023-02-28T01:16:05;100046.56;;;9.03;100.00
8320;BME280;4197;42.130;24.746;2023-02-28T01:18:35;100054.38;;;9.05;100.00
8320;BME280;4197;42.130;24.746;2023-02-28T01:21:04;100061.56;;;9.01;100.00
8320;BME280;4197;42.130;24.746;2023-02-28T01:23:33;100059.50;;;8.98;100.00
8320;BME280;4197;42.130;24.746;2023-02-28T01:26:04;100060.16;;;8.94;100.00
8320;BME280;4197;42.130;24.746;2023-02-28T01:28:33;100057.78;;;8.93;100.00
8320;BME280;4197;42.130;24.746;2023-02-28T01:31:01;100052.38;;;8.93;100.00
8320;BME280;4197;42.130;24.746;2023-02-28T01:33:30;100056.34;;;8.96;100.00
8320;BME280;4197;42.130;24.746;2023-02-28T01:35:59;100059.97;;;9.00;100.00
8320;BME280;4197;42.130;24.746;2023-02-28T01:38:28;100058.53;;;9.02;100.00
8320;BME280;4197;42.130;24.746;2023-02-28T01:40:57;100066.31;;;9.04;100.00
8320;BME280;4197;42.130;24.746;2023-02-28T01:43:27;100065.06;;;9.01;100.00
8320;BME280;4197;42.130;24.746;2023-02-28T01:45:57;100079.84;;;9.04;100.00
8320;BME280;4197;42.130;24.746;2023-02-28T01:48:29;100085.69;;;9.06;100.00
8320;BME280;4197;42.130;24.746;2023-02-28T01:51:05;100088.72;;;9.34;100.00
8320;BME280;4197;42.130;24.746;2023-02-28T01:53:39;100098.88;;;9.37;100.00
8320;BME280;4197;42.130;24.746;2023-02-28T01:56:11;100100.34;;;9.34;100.00
8320;BME280;4197;42.130;24.746;2023-02-28T01:58:40;100097.53;;;9.22;100.00
8320;BME280;4197;42.130;24.746;2023-02-28T02:01:08;100105.22;;;9.20;100.00
8320;BME280;4197;42.130;24.746;2023-02-28T02:03:47;100112.38;;;9.16;100.00
8320;BME280;4197;42.130;24.746;2023-02-28T02:06:25;100114.91;;;9.21;100.00
8320;BME280;4197;42.130;24.746;2023-02-28T02:08:55;100121.75;;;9.19;100.00
8320;BME280;4197;42.130;24.746;2023-02-28T02:11:24;100122.69;;;9.23;100.00
8320;BME280;4197;42.130;24.746;2023-02-28T02:14:09;100115.56;;;9.18;100.00
8320;BME280;4197;42.130;24.746;2023-02-28T02:16:51;100123.13;;;9.04;100.00
8320;BME280;4197;42.130;24.746;2023-02-28T02:19:46;100124.09;;;8.99;100.00
8320;BME280;4197;42.130;24.746;2023-02-28T02:22:33;100122.06;;;8.96;100.00
8320;BME280;4197;42.130;24.746;2023-02-28T02:25:19;100114.44;;;8.89;100.00
8320;BME280;4197;42.130;24.746;2023-02-28T02:28:18;100117.78;;;8.86;100.00
8320;BME280;4197;42.130;24.746;2023-02-28T02:31:03;100125.81;;;8.74;100.00
8320;BME280;4197;42.130;24.746;2023-02-28T02:36:49;100129.41;;;8.48;100.00
8320;BME280;4197;42.130;24.746;2023-02-28T02:39:25;100131.31;;;8.31;100.00
8320;BME280;4197;42.130;24.746;2023-02-28T02:42:01;100137.25;;;8.07;100.00
8320;BME280;4197;42.130;24.746;2023-02-28T02:44:31;100129.34;;;7.93;100.00
8320;BME280;4197;42.130;24.746;2023-02-28T02:47:08;100130.75;;;7.90;100.00
8320;BME280;4197;42.130;24.746;2023-02-28T02:49:38;100135.66;;;7.97;100.00
8320;BME280;4197;42.130;24.746;2023-02-28T02:52:11;100148.84;;;8.16;100.00
8320;BME280;4197;42.130;24.746;2023-02-28T02:54:43;100141.38;;;8.13;100.00
8320;BME280;4197;42.130;24.746;2023-02-28T02:57:15;100146.56;;;8.35;100.00
8320;BME280;4197;42.130;24.746;2023-02-28T02:59:49;100150.41;;;8.34;100.00
8320;BME280;4197;42.130;24.746;2023-02-28T03:02:20;100150.72;;;8.41;100.00
8320;BME280;4197;42.130;24.746;2023-02-28T03:04:51;100160.88;;;8.44;100.00
8320;BME280;4197;42.130;24.746;2023-02-28T03:07:22;100171.88;;;8.48;100.00
8320;BME280;4197;42.130;24.746;2023-02-28T03:09:51;100170.25;;;8.38;100.00
8320;BME280;4197;42.130;24.746;2023-02-28T03:12:20;100176.28;;;8.53;100.00
8320;BME280;4197;42.130;24.746;2023-02-28T03:14:56;100174.72;;;8.52;100.00
8320;BME280;4197;42.130;24.746;2023-02-28T03:17:56;100173.63;;;8.44;100.00
8320;BME280;4197;42.130;24.746;2023-02-28T03:20:36;100180.59;;;8.36;100.00
8320;BME280;4197;42.130;24.746;2023-02-28T03:23:17;100188.38;;;8.38;100.00
8320;BME280;4197;42.130;24.746;2023-02-28T03:25:55;100194.09;;;8.36;100.00
8320;BME280;4197;42.130;24.746;2023-02-28T03:28:31;100186.66;;;8.42;100.00
8320;BME280;4197;42.130;24.746;2023-02-28T03:31:07;100190.00;;;8.39;100.00
8320;BME280;4197;42.130;24.746;2023-02-28T03:33:41;100189.66;;;8.49;100.00
8320;BME280;4197;42.130;24.746;2023-02-28T03:36:14;100183.63;;;8.43;100.00
8320;BME280;4197;42.130;24.746;2023-02-28T03:38:48;100196.81;;;8.36;100.00
8320;BME280;4197;42.130;24.746;2023-02-28T03:41:22;100178.53;;;8.42;100.00
8320;BME280;4197;42.130;24.746;2023-02-28T03:43:54;100181.06;;;8.47;100.00
8320;BME280;4197;42.130;24.746;2023-02-28T03:46:25;100183.47;;;8.48;100.00
8320;BME280;4197;42.130;24.746;2023-02-28T03:48:57;100188.06;;;8.57;100.00
8320;BME280;4197;42.130;24.746;2023-02-28T03:51:29;100189.16;;;8.56;100.00
8320;BME280;4197;42.130;24.746;2023-02-28T03:54:05;100194.53;;;8.64;100.00
8320;BME280;4197;42.130;24.746;2023-02-28T03:56:38;100204.13;;;8.62;100.00
8320;BME280;4197;42.130;24.746;2023-02-28T03:59:10;100211.56;;;8.56;100.00
8320;BME280;4197;42.130;24.746;2023-02-28T04:01:43;100211.91;;;8.55;100.00
8320;BME280;4197;42.130;24.746;2023-02-28T04:04:13;100215.91;;;8.48;100.00
8320;BME280;4197;42.130;24.746;2023-02-28T04:06:42;100223.50;;;8.55;100.00
8320;BME280;4197;42.130;24.746;2023-02-28T04:09:14;100227.66;;;8.53;100.00
8320;BME280;4197;42.130;24.746;2023-02-28T04:11:44;100230.66;;;8.60;100.00
8320;BME280;4197;42.130;24.746;2023-02-28T04:14:13;100239.41;;;8.65;100.00
8320;BME280;4197;42.130;24.746;2023-02-28T04:16:42;100243.53;;;8.63;100.00
8320;BME280;4197;42.130;24.746;2023-02-28T04:19:11;100240.19;;;8.66;100.00
8320;BME280;4197;42.130;24.746;2023-02-28T04:21:42;100243.22;;;8.73;100.00
8320;BME280;4197;42.130;24.746;2023-02-28T04:24:14;100234.13;;;8.78;100.00
8320;BME280;4197;42.130;24.746;2023-02-28T04:26:44;100243.34;;;8.77;100.00
8320;BME280;4197;42.130;24.746;2023-02-28T04:29:20;100237.97;;;8.68;100.00
8320;BME280;4197;42.130;24.746;2023-02-28T04:31:48;100235.56;;;8.66;100.00
8320;BME280;4197;42.130;24.746;2023-02-28T04:34:17;100243.53;;;8.63;100.00
8320;BME280;4197;42.130;24.746;2023-02-28T04:36:45;100245.78;;;8.52;100.00
8320;BME280;4197;42.130;24.746;2023-02-28T04:39:35;100241.63;;;8.63;100.00
8320;BME280;4197;42.130;24.746;2023-02-28T04:42:04;100232.28;;;8.52;100.00
8320;BME280;4197;42.130;24.746;2023-02-28T04:44:33;100238.94;;;8.55;100.00
8320;BME280;4197;42.130;24.746;2023-02-28T04:47:01;100240.22;;;8.57;100.00
8320;BME280;4197;42.130;24.746;2023-02-28T04:49:29;100247.81;;;8.73;100.00
8320;BME280;4197;42.130;24.746;2023-02-28T04:51:57;100242.25;;;8.69;100.00
8320;BME280;4197;42.130;24.746;2023-02-28T04:54:25;100242.59;;;8.67;100.00
8320;BME280;4197;42.130;24.746;2023-02-28T04:56:56;100244.03;;;8.65;100.00
8320;BME280;4197;42.130;24.746;2023-02-28T04:59:24;100246.09;;;8.59;100.00
8320;BME280;4197;42.130;24.746;2023-02-28T05:01:52;100253.88;;;8.61;100.00
8320;BME280;4197;42.130;24.746;2023-02-28T05:04:20;100263.91;;;8.60;100.00
8320;BME280;4197;42.130;24.746;2023-02-28T05:06:49;100272.78;;;8.69;100.00
8320;BME280;4197;42.130;24.746;2023-02-28T05:09:16;100271.34;;;8.72;100.00
8320;BME280;4197;42.130;24.746;2023-02-28T05:11:45;100270.09;;;8.69;100.00
8320;BME280;4197;42.130;24.746;2023-02-28T05:14:15;100270.09;;;8.69;100.00
8320;BME280;4197;42.130;24.746;2023-02-28T05:16:43;100275.03;;;8.59;100.00
8320;BME280;4197;42.130;24.746;2023-02-28T05:19:12;100277.28;;;8.57;100.00
8320;BME280;4197;42.130;24.746;2023-02-28T05:21:41;100278.06;;;8.57;100.00
8320;BME280;4197;42.130;24.746;2023-02-28T05:24:11;100278.53;;;8.59;100.00
8320;BME280;4197;42.130;24.746;2023-02-28T05:26:42;100280.28;;;8.64;100.00
8320;BME280;4197;42.130;24.746;2023-02-28T05:29:10;100286.94;;;8.66;100.00
8320;BME280;4197;42.130;24.746;2023-02-28T05:31:40;100292.84;;;8.60;100.00
8320;BME280;4197;42.130;24.746;2023-02-28T05:34:08;100291.88;;;8.56;100.00
8320;BME280;4197;42.130;24.746;2023-02-28T05:36:38;100297.91;;;8.70;100.00
8320;BME280;4197;42.130;24.746;2023-02-28T05:39:07;100306.03;;;8.79;100.00
8320;BME280;4197;42.130;24.746;2023-02-28T05:41:40;100301.06;;;8.89;100.00
8320;BME280;4197;42.130;24.746;2023-02-28T05:44:09;100304.41;;;8.86;100.00
8320;BME280;4197;42.130;24.746;2023-02-28T05:46:37;100308.88;;;8.82;100.00
8320;BME280;4197;42.130;24.746;2023-02-28T05:49:07;100316.03;;;8.87;100.00
8320;BME280;4197;42.130;24.746;2023-02-28T05:51:36;100318.91;;;8.82;100.00
8320;BME280;4197;42.130;24.746;2023-02-28T05:54:07;100315.75;;;8.54;100.00
8320;BME280;4197;42.130;24.746;2023-02-28T05:56:37;100318.44;;;8.71;100.00
8320;BME280;4197;42.130;24.746;2023-02-28T05:59:07;100315.41;;;8.81;100.00
8320;BME280;4197;42.130;24.746;2023-02-28T06:01:37;100316.53;;;8.71;100.00
8320;BME280;4197;42.130;24.746;2023-02-28T06:04:10;100322.41;;;8.82;100.00
8320;BME280;4197;42.130;24.746;2023-02-28T06:06:56;100320.78;;;8.99;100.00
8320;BME280;4197;42.130;24.746;2023-02-28T06:09:25;100330.47;;;9.08;100.00
8320;BME280;4197;42.130;24.746;2023-02-28T06:11:53;100334.91;;;9.13;100.00
8320;BME280;4197;42.130;24.746;2023-02-28T06:14:22;100335.88;;;9.08;100.00
8320;BME280;4197;42.130;24.746;2023-02-28T06:16:51;100340.50;;;9.08;100.00
8320;BME280;4197;42.130;24.746;2023-02-28T06:19:20;100341.78;;;9.02;100.00
8320;BME280;4197;42.130;24.746;2023-02-28T06:21:49;100340.50;;;8.99;100.00
8320;BME280;4197;42.130;24.746;2023-02-28T06:24:20;100339.72;;;8.99;100.00
8320;BME280;4197;42.130;24.746;2023-02-28T06:26:49;100341.25;;;9.17;100.00
8320;BME280;4197;42.130;24.746;2023-02-28T06:29:17;100341.38;;;9.38;100.00
8320;BME280;4197;42.130;24.746;2023-02-28T06:31:46;100336.53;;;9.52;100.00
8320;BME280;4197;42.130;24.746;2023-02-28T06:34:16;100346.88;;;9.59;100.00
8320;BME280;4197;42.130;24.746;2023-02-28T06:36:46;100344.00;;;9.55;100.00
8320;BME280;4197;42.130;24.746;2023-02-28T06:39:15;100340.47;;;9.64;100.00
8320;BME280;4197;42.130;24.746;2023-02-28T06:41:43;100346.50;;;9.69;100.00
8320;BME280;4197;42.130;24.746;2023-02-28T06:44:21;100341.59;;;9.63;100.00
8320;BME280;4197;42.130;24.746;2023-02-28T06:46:50;100338.75;;;9.59;100.00
8320;BME280;4197;42.130;24.746;2023-02-28T06:49:19;100336.66;;;9.65;100.00
8320;BME280;4197;42.130;24.746;2023-02-28T06:51:49;100336.28;;;9.75;100.00
8320;BME280;4197;42.130;24.746;2023-02-28T06:54:18;100342.13;;;9.86;100.00
8320;BME280;4197;42.130;24.746;2023-02-28T06:56:46;100355.34;;;9.87;100.00
8320;BME280;4197;42.130;24.746;2023-02-28T06:59:14;100355.78;;;9.98;100.00
8320;BME280;4197;42.130;24.746;2023-02-28T07:01:44;100351.88;;;10.08;100.00
8320;BME280;4197;42.130;24.746;2023-02-28T07:04:16;100353.19;;;9.72;100.00
8320;BME280;4197;42.130;24.746;2023-02-28T07:06:44;100357.31;;;9.40;100.00
8320;BME280;4197;42.130;24.746;2023-02-28T07:09:14;100360.97;;;9.35;100.00
8320;BME280;4197;42.130;24.746;2023-02-28T07:11:42;100358.03;;;9.02;100.00
8320;BME280;4197;42.130;24.746;2023-02-28T07:14:11;100358.09;;;9.40;100.00
8320;BME280;4197;42.130;24.746;2023-02-28T07:16:39;100355.13;;;9.63;100.00
8320;BME280;4197;42.130;24.746;2023-02-28T07:19:07;100354.13;;;9.76;100.00
8320;BME280;4197;42.130;24.746;2023-02-28T07:21:35;100363.88;;;9.68;100.00
8320;BME280;4197;42.130;24.746;2023-02-28T07:24:04;100367.50;;;9.25;100.00
8320;BME280;4197;42.130;24.746;2023-02-28T07:26:34;100364.03;;;9.16;100.00
8320;BME280;4197;42.130;24.746;2023-02-28T07:29:02;100371.81;;;9.35;100.00
8320;BME280;4197;42.130;24.746;2023-02-28T07:31:30;100373.44;;;9.19;100.00
8320;BME280;4197;42.130;24.746;2023-02-28T07:33:59;100368.38;;;8.91;100.00
8320;BME280;4197;42.130;24.746;2023-02-28T07:36:27;100380.63;;;8.88;100.00
8320;BME280;4197;42.130;24.746;2023-02-28T07:38:55;100387.13;;;8.53;100.00
8320;BME280;4197;42.130;24.746;2023-02-28T07:41:24;100379.66;;;8.41;100.00
8320;BME280;4197;42.130;24.746;2023-02-28T07:43:56;100388.25;;;8.43;100.00
8320;BME280;4197;42.130;24.746;2023-02-28T07:46:26;100378.53;;;8.42;100.00
8320;BME280;4197;42.130;24.746;2023-02-28T07:48:56;100376.16;;;8.40;100.00
8320;BME280;4197;42.130;24.746;2023-02-28T07:51:26;100376.59;;;8.34;100.00
8320;BME280;4197;42.130;24.746;2023-02-28T07:53:54;100375.66;;;8.38;100.00
8320;BME280;4197;42.130;24.746;2023-02-28T07:56:23;100379.38;;;8.60;100.00
8320;BME280;4197;42.130;24.746;2023-02-28T07:58:51;100381.44;;;8.63;100.00
8320;BME280;4197;42.130;24.746;2023-02-28T08:01:21;100383.66;;;8.61;100.00
8320;BME280;4197;42.130;24.746;2023-02-28T08:03:49;100377.13;;;8.97;100.00
8320;BME280;4197;42.130;24.746;2023-02-28T08:06:18;100393.84;;;8.81;100.00
8320;BME280;4197;42.130;24.746;2023-02-28T08:08:47;100394.41;;;8.35;100.00
8320;BME280;4197;42.130;24.746;2023-02-28T08:11:16;100392.31;;;8.23;100.00
8320;BME280;4197;42.130;24.746;2023-02-28T08:13:45;100398.22;;;8.34;100.00
8320;BME280;4197;42.130;24.746;2023-02-28T08:16:14;100395.19;;;8.26;100.00
8320;BME280;4197;42.130;24.746;2023-02-28T08:18:51;100396.66;;;8.41;100.00
8320;BME280;4197;42.130;24.746;2023-02-28T08:21:21;100402.72;;;8.47;100.00
8320;BME280;4197;42.130;24.746;2023-02-28T08:23:50;100402.03;;;8.24;100.00
8320;BME280;4197;42.130;24.746;2023-02-28T08:26:18;100390.09;;;8.34;100.00
8320;BME280;4197;42.130;24.746;2023-02-28T08:28:47;100390.97;;;8.43;100.00
8320;BME280;4197;42.130;24.746;2023-02-28T08:31:16;100389.69;;;8.58;100.00
8320;BME280;4197;42.130;24.746;2023-02-28T08:33:45;100384.13;;;8.63;100.00
8320;BME280;4197;42.130;24.746;2023-02-28T08:36:17;100384.13;;;8.71;100.00
8320;BME280;4197;42.130;24.746;2023-02-28T08:38:46;100378.09;;;8.75;100.00
8320;BME280;4197;42.130;24.746;2023-02-28T08:41:14;100391.13;;;8.99;100.00
8320;BME280;4197;42.130;24.746;2023-02-28T08:43:43;100387.78;;;9.02;100.00
8320;BME280;4197;42.130;24.746;2023-02-28T08:46:12;100389.16;;;9.25;100.00
8320;BME280;4197;42.130;24.746;2023-02-28T08:48:41;100390.44;;;9.19;100.00
8320;BME280;4197;42.130;24.746;2023-02-28T08:51:13;100394.44;;;9.22;100.00
8320;BME280;4197;42.130;24.746;2023-02-28T08:53:44;100394.25;;;9.35;100.00
8320;BME280;4197;42.130;24.746;2023-02-28T08:56:16;100398.91;;;9.09;100.00
8320;BME280;4197;42.130;24.746;2023-02-28T08:58:45;100393.81;;;9.16;100.00
8320;BME280;4197;42.130;24.746;2023-02-28T09:01:15;100393.69;;;9.04;100.00
8320;BME280;4197;42.130;24.746;2023-02-28T09:03:45;100388.31;;;9.42;100.00
8320;BME280;4197;42.130;24.746;2023-02-28T09:06:14;100398.34;;;9.59;100.00
8320;BME280;4197;42.130;24.746;2023-02-28T09:08:44;100396.63;;;9.37;100.00
8320;BME280;4197;42.130;24.746;2023-02-28T09:11:13;100397.47;;;9.20;100.00
8320;BME280;4197;42.130;24.746;2023-02-28T09:13:42;100395.16;;;9.57;100.00
8320;BME280;4197;42.130;24.746;2023-02-28T09:16:12;100399.66;;;9.35;100.00
8320;BME280;4197;42.130;24.746;2023-02-28T09:18:41;100397.31;;;9.16;100.00
8320;BME280;4197;42.130;24.746;2023-02-28T09:21:12;100387.44;;;9.03;100.00
8320;BME280;4197;42.130;24.746;2023-02-28T09:23:41;100393.03;;;8.89;100.00
8320;BME280;4197;42.130;24.746;2023-02-28T09:26:15;100387.81;;;8.84;100.00
8320;BME280;4197;42.130;24.746;2023-02-28T09:28:44;100383.75;;;9.25;100.00
8320;BME280;4197;42.130;24.746;2023-02-28T09:31:14;100383.78;;;9.08;100.00
8320;BME280;4197;42.130;24.746;2023-02-28T09:33:43;100381.88;;;9.00;100.00
8320;BME280;4197;42.130;24.746;2023-02-28T09:36:11;100369.94;;;8.92;100.00
8320;BME280;4197;42.130;24.746;2023-02-28T09:38:39;100370.75;;;9.01;100.00
8320;BME280;4197;42.130;24.746;2023-02-28T09:41:15;100377.44;;;9.04;100.00
8320;BME280;4197;42.130;24.746;2023-02-28T09:43:45;100388.91;;;8.75;100.00
8320;BME280;4197;42.130;24.746;2023-02-28T09:46:26;100384.78;;;8.60;100.00
8320;BME280;4197;42.130;24.746;2023-02-28T09:48:56;100388.91;;;8.66;100.00
8320;BME280;4197;42.130;24.746;2023-02-28T09:51:34;100391.44;;;8.80;100.00
8320;BME280;4197;42.130;24.746;2023-02-28T09:54:08;100378.69;;;8.98;100.00
8320;BME280;4197;42.130;24.746;2023-02-28T09:56:40;100374.25;;;9.02;100.00
8320;BME280;4197;42.130;24.746;2023-02-28T09:59:15;100370.75;;;9.10;100.00
8320;BME280;4197;42.130;24.746;2023-02-28T10:01:52;100358.34;;;8.91;100.00
8320;BME280;4197;42.130;24.746;2023-02-28T10:04:37;100348.03;;;8.85;100.00
8320;BME280;4197;42.130;24.746;2023-02-28T10:07:19;100343.72;;;8.92;100.00
8320;BME280;4197;42.130;24.746;2023-02-28T10:09:53;100348.31;;;8.92;100.00
8320;BME280;4197;42.130;24.746;2023-02-28T10:12:26;100342.72;;;9.06;100.00
8320;BME280;4197;42.130;24.746;2023-02-28T10:14:56;100351.66;;;8.98;100.00
8320;BME280;4197;42.130;24.746;2023-02-28T10:17:33;100347.53;;;8.91;100.00
8320;BME280;4197;42.130;24.746;2023-02-28T10:20:22;100341.50;;;8.77;100.00
8320;BME280;4197;42.130;24.746;2023-02-28T10:23:00;100338.44;;;9.05;100.00
8320;BME280;4197;42.130;24.746;2023-02-28T10:25:36;100341.97;;;8.79;100.00
8320;BME280;4197;42.130;24.746;2023-02-28T10:28:10;100346.75;;;8.56;100.00
8320;BME280;4197;42.130;24.746;2023-02-28T10:30:42;100336.09;;;8.68;100.00
8320;BME280;4197;42.130;24.746;2023-02-28T10:33:19;100335.75;;;8.70;100.00
8320;BME280;4197;42.130;24.746;2023-02-28T10:35:49;100332.44;;;8.64;100.00
8320;BME280;4197;42.130;24.746;2023-02-28T10:38:20;100336.59;;;8.62;100.00
8320;BME280;4197;42.130;24.746;2023-02-28T10:40:49;100344.34;;;8.37;100.00
8320;BME280;4197;42.130;24.746;2023-02-28T10:43:22;100335.75;;;8.26;100.00
8320;BME280;4197;42.130;24.746;2023-02-28T10:45:56;100341.19;;;8.53;100.00
8320;BME280;4197;42.130;24.746;2023-02-28T10:48:38;100336.13;;;8.51;100.00
8320;BME280;4197;42.130;24.746;2023-02-28T10:51:08;100333.88;;;8.44;100.00
8320;BME280;4197;42.130;24.746;2023-02-28T10:53:45;100330.38;;;8.53;100.00
8320;BME280;4197;42.130;24.746;2023-02-28T10:56:27;100328.16;;;8.55;100.00
8320;BME280;4197;42.130;24.746;2023-02-28T10:58:59;100324.00;;;8.66;100.00
8320;BME280;4197;42.130;24.746;2023-02-28T11:01:37;100318.09;;;8.73;100.00
8320;BME280;4197;42.130;24.746;2023-02-28T11:04:17;100312.84;;;8.93;100.00
8320;BME280;4197;42.130;24.746;2023-02-28T11:06:56;100321.81;;;8.59;100.00
8320;BME280;4197;42.130;24.746;2023-02-28T11:09:28;100314.59;;;8.81;100.00
8320;BME280;4197;42.130;24.746;2023-02-28T11:11:57;100313.59;;;9.11;100.00
8320;BME280;4197;42.130;24.746;2023-02-28T11:14:28;100303.81;;;9.28;100.00
8320;BME280;4197;42.130;24.746;2023-02-28T11:17:00;100314.41;;;9.03;100.00
8320;BME280;4197;42.130;24.746;2023-02-28T11:19:34;100307.94;;;8.69;100.00
8320;BME280;4197;42.130;24.746;2023-02-28T11:22:07;100310.97;;;8.51;100.00
8320;BME280;4197;42.130;24.746;2023-02-28T11:24:40;100306.69;;;8.58;100.00
8320;BME280;4197;42.130;24.746;2023-02-28T11:27:25;100305.41;;;8.73;100.00
8320;BME280;4197;42.130;24.746;2023-02-28T11:29:55;100310.63;;;8.69;100.00
8320;BME280;4197;42.130;24.746;2023-02-28T11:32:24;100306.84;;;8.44;100.00
8320;BME280;4197;42.130;24.746;2023-02-28T11:35:03;100307.91;;;8.09;100.00
8320;BME280;4197;42.130;24.746;2023-02-28T11:37:33;100302.41;;;8.48;100.00
8320;BME280;4197;42.130;24.746;2023-02-28T11:40:02;100307.94;;;8.69;100.00
8320;BME280;4197;42.130;24.746;2023-02-28T11:42:43;100306.38;;;8.51;100.00
8320;BME280;4197;42.130;24.746;2023-02-28T11:45:24;100296.38;;;8.43;100.00
8320;BME280;4197;42.130;24.746;2023-02-28T11:48:06;100297.63;;;8.63;100.00
8320;BME280;4197;42.130;24.746;2023-02-28T11:50:49;100303.81;;;8.72;100.00
8320;BME280;4197;42.130;24.746;2023-02-28T11:53:40;100302.34;;;8.83;100.00
8320;BME280;4197;42.130;24.746;2023-02-28T11:56:16;100298.88;;;8.74;100.00
8320;BME280;4197;42.130;24.746;2023-02-28T11:58:55;100298.09;;;8.74;100.00
8320;BME280;4197;42.130;24.746;2023-02-28T12:01:38;100302.19;;;8.19;100.00
8320;BME280;4197;42.130;24.746;2023-02-28T12:04:22;100298.84;;;8.22;100.00
8320;BME280;4197;42.130;24.746;2023-02-28T12:06:57;100284.06;;;8.28;100.00
8320;BME280;4197;42.130;24.746;2023-02-28T12:09:41;100284.22;;;8.23;100.00
8320;BME280;4197;42.130;24.746;2023-02-28T12:12:21;100284.72;;;8.42;100.00
8320;BME280;4197;42.130;24.746;2023-02-28T12:15:13;100276.66;;;8.51;100.00
8320;BME280;4197;42.130;24.746;2023-02-28T12:17:55;100284.41;;;8.61;100.00
8320;BME280;4197;42.130;24.746;2023-02-28T12:20:34;100287.44;;;8.68;100.00
8320;BME280;4197;42.130;24.746;2023-02-28T12:23:21;100286.97;;;8.49;100.00
8320;BME280;4197;42.130;24.746;2023-02-28T12:26:07;100288.38;;;8.38;100.00
8320;BME280;4197;42.130;24.746;2023-02-28T12:28:43;100287.75;;;8.49;100.00
8320;BME280;4197;42.130;24.746;2023-02-28T12:31:19;100283.75;;;8.64;100.00
8320;BME280;4197;42.130;24.746;2023-02-28T12:33:55;100282.31;;;8.76;100.00
8320;BME280;4197;42.130;24.746;2023-02-28T12:36:25;100277.06;;;8.79;100.00
8320;BME280;4197;42.130;24.746;2023-02-28T12:39:00;100277.72;;;8.76;100.00
8320;BME280;4197;42.130;24.746;2023-02-28T12:41:37;100274.41;;;8.62;100.00
8320;BME280;4197;42.130;24.746;2023-02-28T12:44:12;100268.66;;;8.72;100.00
8320;BME280;4197;42.130;24.746;2023-02-28T12:46:47;100262.47;;;8.63;100.00
8320;BME280;4197;42.130;24.746;2023-02-28T12:49:23;100259.44;;;8.56;100.00
8320;BME280;4197;42.130;24.746;2023-02-28T12:51:53;100268.69;;;8.55;100.00
8320;BME280;4197;42.130;24.746;2023-02-28T12:54:25;100272.81;;;8.61;100.00
8320;BME280;4197;42.130;24.746;2023-02-28T12:57:05;100267.53;;;8.64;100.00
8320;BME280;4197;42.130;24.746;2023-02-28T12:59:40;100272.69;;;8.40;100.00
8320;BME280;4197;42.130;24.746;2023-02-28T13:02:25;100273.13;;;8.51;100.00
8320;BME280;4197;42.130;24.746;2023-02-28T13:05:05;100266.75;;;8.29;100.00
8320;BME280;4197;42.130;24.746;2023-02-28T13:10:43;100262.94;;;8.47;100.00
8320;BME280;4197;42.130;24.746;2023-02-28T13:13:16;100263.59;;;8.44;100.00
8320;BME280;4197;42.130;24.746;2023-02-28T13:16:03;100264.84;;;8.56;100.00
8320;BME280;4197;42.130;24.746;2023-02-28T13:18:35;100259.47;;;8.47;100.00
8320;BME280;4197;42.130;24.746;2023-02-28T13:21:21;100260.56;;;8.55;100.00
8320;BME280;4197;42.130;24.746;2023-02-28T13:23:58;100263.91;;;8.52;100.00
8320;BME280;4197;42.130;24.746;2023-02-28T13:29:52;100255.47;;;8.44;100.00
8320;BME280;4197;42.130;24.746;2023-02-28T13:32:42;100258.81;;;8.41;100.00
8320;BME280;4197;42.130;24.746;2023-02-28T13:35:42;100253.75;;;8.40;100.00
8320;BME280;4197;42.130;24.746;2023-02-28T13:38:24;100254.84;;;8.39;100.00